EGEO

Oban Airport

Airport
ICAO code
EGEO
IATA Code
OBN
Summary
ICAO Region
EUR
ICAO Territory
Location

, Scotland

Serving
North Connel
Elevation
20 ft
Coordinates
56° 27' 50" N , 5° 24' 0" W
Metar
EGEO 221020Z 22007KT 9999 VCSH SCT035 04/00 Q0976

Runways

Designator Length Width Surface Rops
4/22 900 30 ASP No/No
1/19 1240 30 ASP No/No

Airport map

Aerial View

SKYbrary Partners:

Safety knowledge contributed by: